Share

Gillette, WY

8:25 AM MDT on April 24, 2014 (GMT -0600)
(North Gillette) (KWYGILLE6) Elev 4610 ft | 44.31 °N, 105.52 °W | Change Station

Current weather conditions updated 4 seconds ago

Clear
Clear
44.9 °F
Feels Like 45 °F
N
0.0
Wind Variable Wind from SSW
Gusts 3.0 mph
Sunrise 6:03 AM
Sunset 7:58 PM
Moon Waning Crescent

Today is forecast to be Warmer than yesterday.

Pressure 29.87 in
Visibility 10.0 miles
Clouds Clear
Windchill 45 °F
Dew Point 25 °F
Humidity 46%
Rainfall 0.00 in
Snow Depth Not available.
UV 1 out of 16
Pollen 10.40 out of 12
Air Quality Not available.
Flu Activity Sporadic
METAR KBYG 241353Z AUTO 36003KT 10SM CLR 07/M08 A2989 RMK AO2 SLP114 T00671083

More Conditions Fewer Conditions

Pressure 29.87 in
Visibility 10.0 miles
Clouds Clear
Windchill 45 °F
Dew Point 25 °F
Humidity 46%
Rainfall 0.00 in
Snow Depth Not available.
UV 1 out of 16
Pollen 10.40 out of 12
Air Quality Not available.
Flu Activity Sporadic
METAR KBYG 241353Z AUTO 36003KT 10SM CLR 07/M08 A2989 RMK AO2 SLP114 T00671083

More Conditions Fewer Conditions

10-Day Weather Forecast

Almanac

Astronomy

Apr. 24, 2014 Rise Set
Actual Time 6:03 AM MDT 7:58 PM MDT
Civil Twilight 5:32 AM MDT 8:30 PM MDT
Nautical Twilight 4:54 AM MDT 9:08 PM MDT
Astronomical Twilight 4:12 AM MDT 9:50 PM MDT
Moon 3:28 AM MDT 3:06 PM MDT
Length of Visible Light 14h 57m
Length of Day
13h 55m
Tomorrow will be 2m 48s longer.
Waning Crescent, 25% of the Moon is Illuminated
Today
Waning Crescent
Apr 29
New
May 6
First Quarter
May 14
Full
May 21
Last Quarter

Today's Extremes

State Highs State Lows

Community

  • Clouds mov'n in
    Clouds mov'n in
  • Stacked
    Stacked
  • clouds approaching Red Sox Nation
    clouds approaching Red Sox Nation
  • Balance
    Balance
  • Citysky
    Citysky

WunderPhotos

Upload Photos

1,704,622 photos uploaded!

WunderBlogs® & News

Nearby

Snow Depth

Station Depth Elevation
Cole Canyon 17 in 5910 ft
Hansen Sawmill 26 in 8360 ft
Cloud Peak Reservoir 63 in 9860 ft
Powder River Pass 45 in 9480 ft
Dome Lake 54 in 8880 ft

Coastal Water Temperatures

Place Temperature
No Stations Reporting

Earthquake Activity

City Distance Mag. Time & Date
No recent earthquake activity has been reported nearby.
Minimum magnitude displayed is 2.5.

Nearby Weather Stations

Station Location Temp. Windchill Dew Point Humidity Wind Precip. Elev Updated Type
RAWS ECHETA WY, Gillette, WY 37 °F 32 °F 19 °F 48% South  at  6 mph 0.00 in / hr 4396 ft 6:51 AM MDT MADIS
(North Gillette), Gillette, WY 44.9 °F 45 °F 25 °F 46% SSW  at  0.0 mph 0.00 in / hr 4610 ft 8:25 AM MDT Rapid Fire

Show More Stations Show Fewer Stations

What do you think?

We're not finished. Please let us know what you like, what you don't like, and what you are still missing.